sensor_id;sensor_type;location;lat;lon;timestamp;P1;durP1;ratioP1;P2;durP2;ratioP2
5823;SDS011;2938;52.254;12.988;2023-07-20T00:01:19;8.43;;;7.38;;
5823;SDS011;2938;52.254;12.988;2023-07-20T00:03:44;9.35;;;7.13;;
5823;SDS011;2938;52.254;12.988;2023-07-20T00:06:10;7.90;;;7.20;;
5823;SDS011;2938;52.254;12.988;2023-07-20T00:08:35;7.80;;;7.13;;
5823;SDS011;2938;52.254;12.988;2023-07-20T00:11:01;7.53;;;6.82;;
5823;SDS011;2938;52.254;12.988;2023-07-20T00:13:27;13.98;;;8.18;;
5823;SDS011;2938;52.254;12.988;2023-07-20T00:15:52;11.20;;;7.95;;
5823;SDS011;2938;52.254;12.988;2023-07-20T00:18:18;7.28;;;6.57;;
5823;SDS011;2938;52.254;12.988;2023-07-20T00:20:47;7.60;;;6.97;;
5823;SDS011;2938;52.254;12.988;2023-07-20T00:23:12;7.00;;;6.35;;
5823;SDS011;2938;52.254;12.988;2023-07-20T00:25:37;8.13;;;7.38;;
5823;SDS011;2938;52.254;12.988;2023-07-20T00:28:02;8.85;;;7.18;;
5823;SDS011;2938;52.254;12.988;2023-07-20T00:30:28;8.95;;;7.90;;
5823;SDS011;2938;52.254;12.988;2023-07-20T00:32:53;11.20;;;7.13;;
5823;SDS011;2938;52.254;12.988;2023-07-20T00:35:19;10.73;;;8.55;;
5823;SDS011;2938;52.254;12.988;2023-07-20T00:37:44;9.07;;;8.20;;
5823;SDS011;2938;52.254;12.988;2023-07-20T00:40:09;9.07;;;8.15;;
5823;SDS011;2938;52.254;12.988;2023-07-20T00:42:35;8.52;;;7.68;;
5823;SDS011;2938;52.254;12.988;2023-07-20T00:45:03;10.38;;;7.30;;
5823;SDS011;2938;52.254;12.988;2023-07-20T00:47:28;10.60;;;7.90;;
5823;SDS011;2938;52.254;12.988;2023-07-20T00:49:54;8.40;;;7.50;;
5823;SDS011;2938;52.254;12.988;2023-07-20T00:52:20;10.00;;;8.95;;
5823;SDS011;2938;52.254;12.988;2023-07-20T00:54:47;8.48;;;7.72;;
5823;SDS011;2938;52.254;12.988;2023-07-20T00:57:13;12.80;;;7.78;;
5823;SDS011;2938;52.254;12.988;2023-07-20T00:59:39;8.38;;;7.55;;
5823;SDS011;2938;52.254;12.988;2023-07-20T01:02:04;11.85;;;7.65;;
5823;SDS011;2938;52.254;12.988;2023-07-20T01:04:30;7.88;;;7.07;;
5823;SDS011;2938;52.254;12.988;2023-07-20T01:07:01;8.13;;;6.80;;
5823;SDS011;2938;52.254;12.988;2023-07-20T01:09:33;11.27;;;7.10;;
5823;SDS011;2938;52.254;12.988;2023-07-20T01:12:26;9.13;;;7.82;;
5823;SDS011;2938;52.254;12.988;2023-07-20T01:14:54;8.50;;;7.70;;
5823;SDS011;2938;52.254;12.988;2023-07-20T01:17:20;9.55;;;8.63;;
5823;SDS011;2938;52.254;12.988;2023-07-20T01:19:45;12.23;;;7.95;;
5823;SDS011;2938;52.254;12.988;2023-07-20T01:22:36;8.35;;;7.63;;
5823;SDS011;2938;52.254;12.988;2023-07-20T01:25:21;9.15;;;8.27;;
5823;SDS011;2938;52.254;12.988;2023-07-20T01:30:46;10.25;;;7.53;;
5823;SDS011;2938;52.254;12.988;2023-07-20T01:33:19;9.48;;;8.05;;
5823;SDS011;2938;52.254;12.988;2023-07-20T01:35:46;8.07;;;7.38;;
5823;SDS011;2938;52.254;12.988;2023-07-20T01:38:23;7.78;;;7.07;;
5823;SDS011;2938;52.254;12.988;2023-07-20T01:40:49;8.55;;;7.75;;
5823;SDS011;2938;52.254;12.988;2023-07-20T01:43:15;8.32;;;7.55;;
5823;SDS011;2938;52.254;12.988;2023-07-20T01:45:41;8.52;;;7.20;;
5823;SDS011;2938;52.254;12.988;2023-07-20T01:48:06;7.60;;;6.78;;
5823;SDS011;2938;52.254;12.988;2023-07-20T01:50:32;8.57;;;7.72;;
5823;SDS011;2938;52.254;12.988;2023-07-20T01:52:59;10.18;;;8.15;;
5823;SDS011;2938;52.254;12.988;2023-07-20T01:55:24;11.70;;;7.43;;
5823;SDS011;2938;52.254;12.988;2023-07-20T01:57:49;11.18;;;7.57;;
5823;SDS011;2938;52.254;12.988;2023-07-20T02:00:15;9.15;;;8.43;;
5823;SDS011;2938;52.254;12.988;2023-07-20T02:02:41;8.00;;;7.30;;
5823;SDS011;2938;52.254;12.988;2023-07-20T02:05:06;8.38;;;7.57;;
5823;SDS011;2938;52.254;12.988;2023-07-20T02:07:32;11.20;;;8.32;;
5823;SDS011;2938;52.254;12.988;2023-07-20T02:09:57;9.52;;;7.50;;
5823;SDS011;2938;52.254;12.988;2023-07-20T02:12:23;8.88;;;7.97;;
5823;SDS011;2938;52.254;12.988;2023-07-20T02:14:48;15.95;;;8.25;;
5823;SDS011;2938;52.254;12.988;2023-07-20T02:17:16;8.90;;;8.10;;
5823;SDS011;2938;52.254;12.988;2023-07-20T02:19:41;9.05;;;7.78;;
5823;SDS011;2938;52.254;12.988;2023-07-20T02:25:28;12.13;;;9.70;;
5823;SDS011;2938;52.254;12.988;2023-07-20T02:27:53;11.35;;;10.25;;
5823;SDS011;2938;52.254;12.988;2023-07-20T02:30:20;14.13;;;9.88;;
5823;SDS011;2938;52.254;12.988;2023-07-20T02:32:46;15.40;;;11.15;;
5823;SDS011;2938;52.254;12.988;2023-07-20T02:35:16;13.70;;;11.85;;
5823;SDS011;2938;52.254;12.988;2023-07-20T02:37:41;16.88;;;13.38;;
5823;SDS011;2938;52.254;12.988;2023-07-20T02:40:07;22.58;;;18.33;;
5823;SDS011;2938;52.254;12.988;2023-07-20T02:42:33;24.30;;;19.92;;
5823;SDS011;2938;52.254;12.988;2023-07-20T02:44:59;26.45;;;18.08;;
5823;SDS011;2938;52.254;12.988;2023-07-20T02:47:24;18.60;;;15.75;;
5823;SDS011;2938;52.254;12.988;2023-07-20T02:49:50;22.10;;;18.10;;
5823;SDS011;2938;52.254;12.988;2023-07-20T02:52:15;22.13;;;19.83;;
5823;SDS011;2938;52.254;12.988;2023-07-20T02:54:43;25.02;;;19.80;;
5823;SDS011;2938;52.254;12.988;2023-07-20T02:57:08;20.85;;;18.77;;
5823;SDS011;2938;52.254;12.988;2023-07-20T02:59:34;20.45;;;18.08;;
5823;SDS011;2938;52.254;12.988;2023-07-20T03:01:59;23.27;;;18.33;;
5823;SDS011;2938;52.254;12.988;2023-07-20T03:04:27;25.65;;;19.65;;
5823;SDS011;2938;52.254;12.988;2023-07-20T03:06:53;20.30;;;17.80;;
5823;SDS011;2938;52.254;12.988;2023-07-20T03:09:18;22.95;;;18.75;;
5823;SDS011;2938;52.254;12.988;2023-07-20T03:11:43;20.70;;;18.55;;
5823;SDS011;2938;52.254;12.988;2023-07-20T03:14:09;23.77;;;18.15;;
5823;SDS011;2938;52.254;12.988;2023-07-20T03:16:35;20.98;;;19.08;;
5823;SDS011;2938;52.254;12.988;2023-07-20T03:19:01;22.63;;;17.77;;
5823;SDS011;2938;52.254;12.988;2023-07-20T03:21:26;24.08;;;18.20;;
5823;SDS011;2938;52.254;12.988;2023-07-20T03:23:51;19.55;;;17.67;;
5823;SDS011;2938;52.254;12.988;2023-07-20T03:26:17;21.17;;;18.98;;
5823;SDS011;2938;52.254;12.988;2023-07-20T03:28:42;19.58;;;17.50;;
5823;SDS011;2938;52.254;12.988;2023-07-20T03:31:07;21.83;;;17.35;;
5823;SDS011;2938;52.254;12.988;2023-07-20T03:33:33;25.83;;;17.75;;
5823;SDS011;2938;52.254;12.988;2023-07-20T03:35:58;18.85;;;16.95;;
5823;SDS011;2938;52.254;12.988;2023-07-20T03:38:24;20.50;;;18.30;;
5823;SDS011;2938;52.254;12.988;2023-07-20T03:40:51;20.48;;;18.40;;
5823;SDS011;2938;52.254;12.988;2023-07-20T03:43:17;18.15;;;16.45;;
5823;SDS011;2938;52.254;12.988;2023-07-20T03:45:42;25.13;;;17.05;;
5823;SDS011;2938;52.254;12.988;2023-07-20T03:48:08;20.67;;;18.48;;
5823;SDS011;2938;52.254;12.988;2023-07-20T03:50:33;17.80;;;15.63;;
5823;SDS011;2938;52.254;12.988;2023-07-20T03:52:58;17.88;;;15.98;;
5823;SDS011;2938;52.254;12.988;2023-07-20T03:55:24;19.83;;;15.85;;
5823;SDS011;2938;52.254;12.988;2023-07-20T03:57:49;17.23;;;15.50;;
5823;SDS011;2938;52.254;12.988;2023-07-20T04:00:15;20.17;;;17.35;;
5823;SDS011;2938;52.254;12.988;2023-07-20T04:02:41;21.42;;;17.10;;
5823;SDS011;2938;52.254;12.988;2023-07-20T04:05:07;19.20;;;16.50;;
5823;SDS011;2938;52.254;12.988;2023-07-20T04:07:32;19.23;;;17.08;;
5823;SDS011;2938;52.254;12.988;2023-07-20T04:09:57;21.23;;;16.70;;
5823;SDS011;2938;52.254;12.988;2023-07-20T04:12:23;21.90;;;18.30;;
5823;SDS011;2938;52.254;12.988;2023-07-20T04:14:48;20.10;;;17.83;;
5823;SDS011;2938;52.254;12.988;2023-07-20T04:17:13;20.73;;;18.60;;
5823;SDS011;2938;52.254;12.988;2023-07-20T04:19:38;17.52;;;15.82;;
5823;SDS011;2938;52.254;12.988;2023-07-20T04:22:04;18.33;;;16.40;;
5823;SDS011;2938;52.254;12.988;2023-07-20T04:24:29;21.30;;;18.02;;
5823;SDS011;2938;52.254;12.988;2023-07-20T04:26:54;26.90;;;17.65;;
5823;SDS011;2938;52.254;12.988;2023-07-20T04:29:20;22.45;;;17.50;;
5823;SDS011;2938;52.254;12.988;2023-07-20T04:31:45;19.02;;;16.60;;
5823;SDS011;2938;52.254;12.988;2023-07-20T04:34:10;19.58;;;17.65;;
5823;SDS011;2938;52.254;12.988;2023-07-20T04:36:35;17.92;;;16.10;;
5823;SDS011;2938;52.254;12.988;2023-07-20T04:39:01;19.63;;;15.88;;
5823;SDS011;2938;52.254;12.988;2023-07-20T04:41:26;21.70;;;17.05;;
5823;SDS011;2938;52.254;12.988;2023-07-20T04:43:52;20.80;;;16.90;;
5823;SDS011;2938;52.254;12.988;2023-07-20T04:46:17;18.80;;;16.88;;
5823;SDS011;2938;52.254;12.988;2023-07-20T04:48:43;18.17;;;16.40;;
5823;SDS011;2938;52.254;12.988;2023-07-20T04:51:09;17.35;;;15.77;;
5823;SDS011;2938;52.254;12.988;2023-07-20T04:53:35;17.30;;;15.70;;
5823;SDS011;2938;52.254;12.988;2023-07-20T04:56:00;19.40;;;17.27;;
5823;SDS011;2938;52.254;12.988;2023-07-20T04:58:25;17.67;;;15.88;;
5823;SDS011;2938;52.254;12.988;2023-07-20T05:00:51;21.38;;;14.18;;
5823;SDS011;2938;52.254;12.988;2023-07-20T05:03:16;20.70;;;15.82;;
5823;SDS011;2938;52.254;12.988;2023-07-20T05:05:42;15.88;;;14.35;;
5823;SDS011;2938;52.254;12.988;2023-07-20T05:08:07;23.55;;;16.60;;
5823;SDS011;2938;52.254;12.988;2023-07-20T05:10:33;17.42;;;14.98;;
5823;SDS011;2938;52.254;12.988;2023-07-20T05:12:58;15.75;;;13.93;;
5823;SDS011;2938;52.254;12.988;2023-07-20T05:15:24;18.33;;;13.73;;
5823;SDS011;2938;52.254;12.988;2023-07-20T05:17:49;16.00;;;13.73;;
5823;SDS011;2938;52.254;12.988;2023-07-20T05:20:15;18.15;;;14.40;;
5823;SDS011;2938;52.254;12.988;2023-07-20T05:22:40;14.68;;;13.27;;
5823;SDS011;2938;52.254;12.988;2023-07-20T05:25:06;19.73;;;15.30;;
5823;SDS011;2938;52.254;12.988;2023-07-20T05:27:33;16.17;;;14.43;;
5823;SDS011;2938;52.254;12.988;2023-07-20T05:29:58;16.33;;;14.00;;
5823;SDS011;2938;52.254;12.988;2023-07-20T05:32:23;15.98;;;14.40;;
5823;SDS011;2938;52.254;12.988;2023-07-20T05:34:51;17.70;;;15.88;;
5823;SDS011;2938;52.254;12.988;2023-07-20T05:37:17;18.90;;;15.77;;
5823;SDS011;2938;52.254;12.988;2023-07-20T05:39:42;17.88;;;16.08;;
5823;SDS011;2938;52.254;12.988;2023-07-20T05:42:08;15.63;;;13.77;;
5823;SDS011;2938;52.254;12.988;2023-07-20T05:44:33;15.52;;;13.88;;
5823;SDS011;2938;52.254;12.988;2023-07-20T05:46:58;20.92;;;14.77;;
5823;SDS011;2938;52.254;12.988;2023-07-20T05:49:24;22.08;;;14.57;;
5823;SDS011;2938;52.254;12.988;2023-07-20T05:51:49;15.98;;;14.27;;
5823;SDS011;2938;52.254;12.988;2023-07-20T05:54:15;17.20;;;15.30;;
5823;SDS011;2938;52.254;12.988;2023-07-20T05:56:40;25.85;;;15.60;;
5823;SDS011;2938;52.254;12.988;2023-07-20T05:59:05;16.98;;;14.48;;
5823;SDS011;2938;52.254;12.988;2023-07-20T06:01:31;15.45;;;13.95;;
5823;SDS011;2938;52.254;12.988;2023-07-20T06:03:56;13.88;;;12.48;;
5823;SDS011;2938;52.254;12.988;2023-07-20T06:06:21;15.65;;;13.35;;
5823;SDS011;2938;52.254;12.988;2023-07-20T06:08:46;13.48;;;12.15;;
5823;SDS011;2938;52.254;12.988;2023-07-20T06:11:12;15.57;;;13.45;;
5823;SDS011;2938;52.254;12.988;2023-07-20T06:13:37;13.95;;;11.25;;
5823;SDS011;2938;52.254;12.988;2023-07-20T06:16:03;12.95;;;11.52;;
5823;SDS011;2938;52.254;12.988;2023-07-20T06:18:28;14.23;;;11.80;;
5823;SDS011;2938;52.254;12.988;2023-07-20T06:20:55;12.48;;;10.10;;
5823;SDS011;2938;52.254;12.988;2023-07-20T06:23:20;11.57;;;9.07;;
5823;SDS011;2938;52.254;12.988;2023-07-20T06:25:45;12.00;;;8.43;;
5823;SDS011;2938;52.254;12.988;2023-07-20T06:28:11;8.13;;;7.35;;
5823;SDS011;2938;52.254;12.988;2023-07-20T06:30:36;9.73;;;6.40;;
5823;SDS011;2938;52.254;12.988;2023-07-20T06:33:02;6.38;;;4.80;;
5823;SDS011;2938;52.254;12.988;2023-07-20T06:35:27;4.18;;;3.88;;
5823;SDS011;2938;52.254;12.988;2023-07-20T06:37:53;6.53;;;3.72;;
5823;SDS011;2938;52.254;12.988;2023-07-20T06:40:18;3.85;;;3.20;;
5823;SDS011;2938;52.254;12.988;2023-07-20T06:42:43;5.75;;;3.50;;
5823;SDS011;2938;52.254;12.988;2023-07-20T06:45:09;5.50;;;3.25;;
5823;SDS011;2938;52.254;12.988;2023-07-20T06:47:34;9.35;;;2.92;;
5823;SDS011;2938;52.254;12.988;2023-07-20T06:49:59;2.70;;;2.40;;
5823;SDS011;2938;52.254;12.988;2023-07-20T06:52:25;4.43;;;2.50;;
5823;SDS011;2938;52.254;12.988;2023-07-20T06:54:50;8.23;;;2.67;;
5823;SDS011;2938;52.254;12.988;2023-07-20T06:57:16;2.97;;;2.70;;
5823;SDS011;2938;52.254;12.988;2023-07-20T06:59:41;4.78;;;2.33;;
5823;SDS011;2938;52.254;12.988;2023-07-20T07:02:06;3.10;;;2.20;;
5823;SDS011;2938;52.254;12.988;2023-07-20T07:04:32;4.00;;;1.92;;
5823;SDS011;2938;52.254;12.988;2023-07-20T07:06:57;1.75;;;1.65;;
5823;SDS011;2938;52.254;12.988;2023-07-20T07:09:22;4.97;;;2.25;;
5823;SDS011;2938;52.254;12.988;2023-07-20T07:11:49;2.78;;;1.60;;
5823;SDS011;2938;52.254;12.988;2023-07-20T07:14:15;7.30;;;2.20;;
5823;SDS011;2938;52.254;12.988;2023-07-20T07:16:40;2.45;;;1.90;;
5823;SDS011;2938;52.254;12.988;2023-07-20T07:19:05;1.60;;;1.50;;
5823;SDS011;2938;52.254;12.988;2023-07-20T07:21:32;9.73;;;2.13;;
5823;SDS011;2938;52.254;12.988;2023-07-20T07:23:57;6.30;;;1.55;;
5823;SDS011;2938;52.254;12.988;2023-07-20T07:26:25;4.65;;;3.10;;
5823;SDS011;2938;52.254;12.988;2023-07-20T07:28:51;4.53;;;2.80;;
5823;SDS011;2938;52.254;12.988;2023-07-20T07:31:16;3.28;;;2.20;;
5823;SDS011;2938;52.254;12.988;2023-07-20T07:33:42;5.38;;;2.63;;
5823;SDS011;2938;52.254;12.988;2023-07-20T07:36:07;4.13;;;2.95;;
5823;SDS011;2938;52.254;12.988;2023-07-20T07:38:33;5.65;;;2.47;;
5823;SDS011;2938;52.254;12.988;2023-07-20T07:40:58;2.47;;;2.15;;
5823;SDS011;2938;52.254;12.988;2023-07-20T07:43:24;6.15;;;2.50;;
5823;SDS011;2938;52.254;12.988;2023-07-20T07:45:49;4.53;;;2.30;;
5823;SDS011;2938;52.254;12.988;2023-07-20T07:48:15;2.53;;;2.15;;
5823;SDS011;2938;52.254;12.988;2023-07-20T07:50:40;6.97;;;2.80;;
5823;SDS011;2938;52.254;12.988;2023-07-20T07:53:05;4.05;;;2.42;;
5823;SDS011;2938;52.254;12.988;2023-07-20T07:55:31;3.92;;;2.00;;
5823;SDS011;2938;52.254;12.988;2023-07-20T07:57:56;8.88;;;2.10;;
5823;SDS011;2938;52.254;12.988;2023-07-20T08:00:21;3.67;;;2.23;;
5823;SDS011;2938;52.254;12.988;2023-07-20T08:02:47;2.55;;;2.35;;
5823;SDS011;2938;52.254;12.988;2023-07-20T08:05:13;7.35;;;2.70;;
5823;SDS011;2938;52.254;12.988;2023-07-20T08:07:38;3.17;;;2.97;;
5823;SDS011;2938;52.254;12.988;2023-07-20T08:10:04;2.83;;;2.58;;
5823;SDS011;2938;52.254;12.988;2023-07-20T08:12:30;2.50;;;2.30;;
5823;SDS011;2938;52.254;12.988;2023-07-20T08:14:55;3.60;;;2.38;;
5823;SDS011;2938;52.254;12.988;2023-07-20T08:17:21;3.88;;;2.80;;
5823;SDS011;2938;52.254;12.988;2023-07-20T08:19:46;6.75;;;2.63;;
5823;SDS011;2938;52.254;12.988;2023-07-20T08:22:11;2.20;;;2.00;;
5823;SDS011;2938;52.254;12.988;2023-07-20T08:24:40;3.03;;;2.72;;
5823;SDS011;2938;52.254;12.988;2023-07-20T08:27:06;3.00;;;2.40;;
5823;SDS011;2938;52.254;12.988;2023-07-20T08:29:31;2.45;;;2.25;;
5823;SDS011;2938;52.254;12.988;2023-07-20T08:31:57;3.45;;;2.00;;
5823;SDS011;2938;52.254;12.988;2023-07-20T08:34:28;2.05;;;1.95;;
5823;SDS011;2938;52.254;12.988;2023-07-20T08:36:54;2.42;;;2.03;;
5823;SDS011;2938;52.254;12.988;2023-07-20T08:39:19;3.90;;;2.38;;
5823;SDS011;2938;52.254;12.988;2023-07-20T08:41:47;2.92;;;2.03;;
5823;SDS011;2938;52.254;12.988;2023-07-20T08:44:12;2.25;;;2.05;;
5823;SDS011;2938;52.254;12.988;2023-07-20T08:46:38;2.67;;;2.10;;
5823;SDS011;2938;52.254;12.988;2023-07-20T08:49:04;2.20;;;1.70;;
5823;SDS011;2938;52.254;12.988;2023-07-20T08:51:30;5.57;;;2.38;;
5823;SDS011;2938;52.254;12.988;2023-07-20T08:53:55;4.82;;;1.63;;
5823;SDS011;2938;52.254;12.988;2023-07-20T08:56:24;1.95;;;1.85;;
5823;SDS011;2938;52.254;12.988;2023-07-20T08:58:51;3.03;;;2.17;;
5823;SDS011;2938;52.254;12.988;2023-07-20T09:01:28;1.80;;;1.70;;
5823;SDS011;2938;52.254;12.988;2023-07-20T09:03:54;3.58;;;1.90;;
5823;SDS011;2938;52.254;12.988;2023-07-20T09:06:19;2.10;;;1.45;;
5823;SDS011;2938;52.254;12.988;2023-07-20T09:08:48;2.30;;;1.75;;
5823;SDS011;2938;52.254;12.988;2023-07-20T09:11:19;1.80;;;1.70;;
5823;SDS011;2938;52.254;12.988;2023-07-20T09:14:10;1.85;;;1.48;;
5823;SDS011;2938;52.254;12.988;2023-07-20T09:19:37;1.65;;;1.25;;
5823;SDS011;2938;52.254;12.988;2023-07-20T09:25:21;1.20;;;1.20;;
5823;SDS011;2938;52.254;12.988;2023-07-20T09:28:07;1.60;;;1.00;;
5823;SDS011;2938;52.254;12.988;2023-07-20T09:31:24;2.08;;;1.20;;
5823;SDS011;2938;52.254;12.988;2023-07-20T09:37:28;2.40;;;1.45;;
5823;SDS011;2938;52.254;12.988;2023-07-20T09:40:21;1.30;;;1.20;;
5823;SDS011;2938;52.254;12.988;2023-07-20T09:46:09;4.68;;;1.10;;
5823;SDS011;2938;52.254;12.988;2023-07-20T09:48:51;1.30;;;1.23;;
5823;SDS011;2938;52.254;12.988;2023-07-20T09:51:21;0.90;;;0.90;;
5823;SDS011;2938;52.254;12.988;2023-07-20T09:54:00;1.65;;;1.33;;
5823;SDS011;2938;52.254;12.988;2023-07-20T09:56:59;2.08;;;1.00;;
5823;SDS011;2938;52.254;12.988;2023-07-20T09:59:52;0.73;;;0.73;;
5823;SDS011;2938;52.254;12.988;2023-07-20T10:02:36;3.35;;;1.13;;
5823;SDS011;2938;52.254;12.988;2023-07-20T10:05:26;1.23;;;1.10;;
5823;SDS011;2938;52.254;12.988;2023-07-20T10:07:59;0.98;;;0.70;;
5823;SDS011;2938;52.254;12.988;2023-07-20T10:13:21;4.28;;;0.70;;
5823;SDS011;2938;52.254;12.988;2023-07-20T10:15:54;2.47;;;1.00;;
5823;SDS011;2938;52.254;12.988;2023-07-20T10:21:42;2.17;;;1.00;;
5823;SDS011;2938;52.254;12.988;2023-07-20T10:24:33;2.13;;;1.10;;
5823;SDS011;2938;52.254;12.988;2023-07-20T10:31:00;1.48;;;1.13;;
5823;SDS011;2938;52.254;12.988;2023-07-20T10:33:48;1.83;;;1.07;;
5823;SDS011;2938;52.254;12.988;2023-07-20T10:36:15;4.20;;;0.80;;
5823;SDS011;2938;52.254;12.988;2023-07-20T10:38:41;1.20;;;0.88;;
5823;SDS011;2938;52.254;12.988;2023-07-20T10:41:19;1.42;;;1.13;;
5823;SDS011;2938;52.254;12.988;2023-07-20T10:43:51;3.42;;;1.30;;
5823;SDS011;2938;52.254;12.988;2023-07-20T10:49:18;0.50;;;0.50;;
5823;SDS011;2938;52.254;12.988;2023-07-20T10:55:09;1.08;;;0.80;;
5823;SDS011;2938;52.254;12.988;2023-07-20T10:58:27;3.60;;;0.65;;
5823;SDS011;2938;52.254;12.988;2023-07-20T11:01:22;0.70;;;0.70;;
5823;SDS011;2938;52.254;12.988;2023-07-20T11:04:08;2.13;;;1.08;;
5823;SDS011;2938;52.254;12.988;2023-07-20T11:06:55;0.50;;;0.50;;
5823;SDS011;2938;52.254;12.988;2023-07-20T11:09:23;1.13;;;0.90;;
5823;SDS011;2938;52.254;12.988;2023-07-20T11:12:09;0.50;;;0.50;;
5823;SDS011;2938;52.254;12.988;2023-07-20T11:14:41;0.90;;;0.80;;
5823;SDS011;2938;52.254;12.988;2023-07-20T11:17:15;1.23;;;1.10;;
5823;SDS011;2938;52.254;12.988;2023-07-20T11:22:48;1.60;;;0.75;;
5823;SDS011;2938;52.254;12.988;2023-07-20T11:25:35;0.77;;;0.77;;
5823;SDS011;2938;52.254;12.988;2023-07-20T11:28:16;0.70;;;0.70;;
5823;SDS011;2938;52.254;12.988;2023-07-20T11:30:50;1.63;;;0.88;;
5823;SDS011;2938;52.254;12.988;2023-07-20T11:36:04;0.80;;;0.80;;
5823;SDS011;2938;52.254;12.988;2023-07-20T11:39:09;5.38;;;1.42;;
5823;SDS011;2938;52.254;12.988;2023-07-20T11:42:02;1.40;;;1.17;;
5823;SDS011;2938;52.254;12.988;2023-07-20T11:44:45;0.80;;;0.80;;
5823;SDS011;2938;52.254;12.988;2023-07-20T11:47:40;1.05;;;0.90;;
5823;SDS011;2938;52.254;12.988;2023-07-20T11:53:13;5.35;;;0.90;;
5823;SDS011;2938;52.254;12.988;2023-07-20T12:01:29;3.80;;;0.60;;
5823;SDS011;2938;52.254;12.988;2023-07-20T12:04:25;0.30;;;0.25;;
5823;SDS011;2938;52.254;12.988;2023-07-20T12:06:52;0.47;;;0.47;;
5823;SDS011;2938;52.254;12.988;2023-07-20T12:09:36;0.63;;;0.63;;
5823;SDS011;2938;52.254;12.988;2023-07-20T12:12:19;1.38;;;0.55;;
5823;SDS011;2938;52.254;12.988;2023-07-20T12:17:46;0.85;;;0.80;;
5823;SDS011;2938;52.254;12.988;2023-07-20T12:20:12;1.77;;;1.08;;
5823;SDS011;2938;52.254;12.988;2023-07-20T12:22:38;0.60;;;0.60;;
5823;SDS011;2938;52.254;12.988;2023-07-20T12:25:05;1.98;;;0.77;;
5823;SDS011;2938;52.254;12.988;2023-07-20T12:27:34;1.58;;;0.93;;
5823;SDS011;2938;52.254;12.988;2023-07-20T12:30:01;0.70;;;0.70;;
5823;SDS011;2938;52.254;12.988;2023-07-20T12:32:29;1.17;;;0.75;;
5823;SDS011;2938;52.254;12.988;2023-07-20T12:34:54;0.80;;;0.80;;
5823;SDS011;2938;52.254;12.988;2023-07-20T12:37:23;1.43;;;0.80;;
5823;SDS011;2938;52.254;12.988;2023-07-20T12:39:51;0.97;;;0.63;;
5823;SDS011;2938;52.254;12.988;2023-07-20T12:42:16;0.65;;;0.65;;
5823;SDS011;2938;52.254;12.988;2023-07-20T12:44:42;3.97;;;1.25;;
5823;SDS011;2938;52.254;12.988;2023-07-20T12:47:07;0.25;;;0.25;;
5823;SDS011;2938;52.254;12.988;2023-07-20T12:49:35;0.88;;;0.73;;
5823;SDS011;2938;52.254;12.988;2023-07-20T12:52:01;0.60;;;0.60;;
5823;SDS011;2938;52.254;12.988;2023-07-20T13:17:15;1.63;;;0.50;;
5823;SDS011;2938;52.254;12.988;2023-07-20T13:20:33;1.10;;;0.88;;
5823;SDS011;2938;52.254;12.988;2023-07-20T13:23:24;0.75;;;0.43;;
5823;SDS011;2938;52.254;12.988;2023-07-20T13:26:14;0.40;;;0.40;;
5823;SDS011;2938;52.254;12.988;2023-07-20T13:29:08;4.18;;;0.40;;
5823;SDS011;2938;52.254;12.988;2023-07-20T13:36:27;0.85;;;0.52;;
5823;SDS011;2938;52.254;12.988;2023-07-20T13:56:07;0.73;;;0.40;;
5823;SDS011;2938;52.254;12.988;2023-07-20T14:02:10;0.88;;;0.60;;
5823;SDS011;2938;52.254;12.988;2023-07-20T14:08:36;1.77;;;0.50;;
5823;SDS011;2938;52.254;12.988;2023-07-20T14:14:41;1.52;;;0.43;;
5823;SDS011;2938;52.254;12.988;2023-07-20T14:27:11;4.40;;;0.73;;
5823;SDS011;2938;52.254;12.988;2023-07-20T14:29:51;1.65;;;0.52;;
5823;SDS011;2938;52.254;12.988;2023-07-20T14:32:20;3.88;;;0.95;;
5823;SDS011;2938;52.254;12.988;2023-07-20T14:34:48;0.45;;;0.45;;
5823;SDS011;2938;52.254;12.988;2023-07-20T14:37:59;1.13;;;0.60;;
5823;SDS011;2938;52.254;12.988;2023-07-20T14:40:32;1.75;;;0.50;;
5823;SDS011;2938;52.254;12.988;2023-07-20T14:43:02;0.85;;;0.65;;
5823;SDS011;2938;52.254;12.988;2023-07-20T14:48:22;2.83;;;0.38;;
5823;SDS011;2938;52.254;12.988;2023-07-20T14:50:47;1.10;;;0.82;;
5823;SDS011;2938;52.254;12.988;2023-07-20T14:53:21;3.17;;;0.77;;
5823;SDS011;2938;52.254;12.988;2023-07-20T14:55:47;2.35;;;0.93;;
5823;SDS011;2938;52.254;12.988;2023-07-20T14:58:14;3.40;;;0.95;;
5823;SDS011;2938;52.254;12.988;2023-07-20T15:00:52;0.80;;;0.60;;
5823;SDS011;2938;52.254;12.988;2023-07-20T15:03:24;0.85;;;0.75;;
5823;SDS011;2938;52.254;12.988;2023-07-20T15:05:49;1.30;;;0.90;;
5823;SDS011;2938;52.254;12.988;2023-07-20T15:08:22;2.97;;;1.10;;
5823;SDS011;2938;52.254;12.988;2023-07-20T15:11:32;0.85;;;0.60;;
5823;SDS011;2938;52.254;12.988;2023-07-20T15:14:29;1.13;;;0.90;;
5823;SDS011;2938;52.254;12.988;2023-07-20T15:20:22;1.60;;;1.27;;
5823;SDS011;2938;52.254;12.988;2023-07-20T15:22:59;1.58;;;0.80;;
5823;SDS011;2938;52.254;12.988;2023-07-20T15:25:32;2.33;;;1.08;;
5823;SDS011;2938;52.254;12.988;2023-07-20T15:28:05;2.53;;;0.45;;
5823;SDS011;2938;52.254;12.988;2023-07-20T15:31:18;1.35;;;0.80;;
5823;SDS011;2938;52.254;12.988;2023-07-20T15:37:43;0.73;;;0.65;;
5823;SDS011;2938;52.254;12.988;2023-07-20T15:43:02;1.65;;;0.93;;
5823;SDS011;2938;52.254;12.988;2023-07-20T15:49:30;2.25;;;1.17;;
5823;SDS011;2938;52.254;12.988;2023-07-20T15:52:07;2.83;;;1.10;;
5823;SDS011;2938;52.254;12.988;2023-07-20T15:57:55;3.92;;;0.52;;
5823;SDS011;2938;52.254;12.988;2023-07-20T16:03:41;1.10;;;0.80;;
5823;SDS011;2938;52.254;12.988;2023-07-20T16:06:13;1.50;;;0.93;;
5823;SDS011;2938;52.254;12.988;2023-07-20T16:08:58;1.55;;;0.85;;
5823;SDS011;2938;52.254;12.988;2023-07-20T16:11:26;1.40;;;0.90;;
5823;SDS011;2938;52.254;12.988;2023-07-20T16:14:10;1.20;;;0.85;;
5823;SDS011;2938;52.254;12.988;2023-07-20T16:16:37;3.30;;;0.93;;
5823;SDS011;2938;52.254;12.988;2023-07-20T16:22:35;1.92;;;1.17;;
5823;SDS011;2938;52.254;12.988;2023-07-20T16:25:25;6.85;;;0.88;;
5823;SDS011;2938;52.254;12.988;2023-07-20T16:35:50;2.90;;;1.02;;
5823;SDS011;2938;52.254;12.988;2023-07-20T16:38:22;2.30;;;0.85;;
5823;SDS011;2938;52.254;12.988;2023-07-20T16:41:46;0.60;;;0.60;;
5823;SDS011;2938;52.254;12.988;2023-07-20T16:51:42;4.03;;;1.00;;
5823;SDS011;2938;52.254;12.988;2023-07-20T17:01:11;4.55;;;1.08;;
5823;SDS011;2938;52.254;12.988;2023-07-20T17:13:55;5.95;;;1.08;;
5823;SDS011;2938;52.254;12.988;2023-07-20T17:17:20;0.65;;;0.60;;
5823;SDS011;2938;52.254;12.988;2023-07-20T17:19:56;2.75;;;1.05;;
5823;SDS011;2938;52.254;12.988;2023-07-20T17:39:06;1.77;;;1.00;;
5823;SDS011;2938;52.254;12.988;2023-07-20T17:42:26;3.10;;;1.67;;
5823;SDS011;2938;52.254;12.988;2023-07-20T17:52:23;3.75;;;0.85;;
5823;SDS011;2938;52.254;12.988;2023-07-20T17:59:06;3.75;;;1.55;;
5823;SDS011;2938;52.254;12.988;2023-07-20T18:12:04;8.45;;;1.95;;
5823;SDS011;2938;52.254;12.988;2023-07-20T18:14:40;1.40;;;1.20;;
5823;SDS011;2938;52.254;12.988;2023-07-20T18:30:27;3.50;;;1.08;;
5823;SDS011;2938;52.254;12.988;2023-07-20T18:44:12;1.20;;;1.10;;
5823;SDS011;2938;52.254;12.988;2023-07-20T19:41:19;4.22;;;1.45;;
5823;SDS011;2938;52.254;12.988;2023-07-20T19:47:26;1.27;;;1.13;;
5823;SDS011;2938;52.254;12.988;2023-07-20T19:53:36;3.30;;;1.52;;
5823;SDS011;2938;52.254;12.988;2023-07-20T19:56:26;1.88;;;1.25;;
5823;SDS011;2938;52.254;12.988;2023-07-20T20:02:19;5.10;;;1.85;;
5823;SDS011;2938;52.254;12.988;2023-07-20T20:04:50;11.85;;;2.03;;
5823;SDS011;2938;52.254;12.988;2023-07-20T20:07:22;1.50;;;1.40;;
5823;SDS011;2938;52.254;12.988;2023-07-20T20:09:56;2.60;;;1.63;;
5823;SDS011;2938;52.254;12.988;2023-07-20T20:12:27;1.40;;;1.17;;
5823;SDS011;2938;52.254;12.988;2023-07-20T20:18:47;4.68;;;1.63;;
5823;SDS011;2938;52.254;12.988;2023-07-20T20:21:21;4.43;;;1.52;;
5823;SDS011;2938;52.254;12.988;2023-07-20T20:24:10;2.05;;;1.33;;